Terminal Aerodrome Forecast
Issued by NWS Louisville, KY

Home | Current Version | Previous Version | Text Only | Print | Product List | Glossary On
Versions: 1 2 3 4 5 6 7 8 9 10 11 12
502
FTUS43 KLMK 242320
TAFLEX
TAF
KLEX 242320Z 2500/2524 33005KT P6SM BKN060
     FM250300 03006KT P6SM FEW200
     FM251100 06007KT P6SM FEW100=

USA.gov is the U.S. government's official web portal to all federal, state and local government web resources and services.